createdAt,value
2022-08-29T00:00:59.311Z,2.50
2022-08-29T00:04:01.999Z,2.17
2022-08-29T00:07:03.816Z,2.95
2022-08-29T00:10:06.809Z,2.58
2022-08-29T00:13:10.151Z,2.60
2022-08-29T00:16:11.825Z,2.03
2022-08-29T00:19:13.775Z,2.58
2022-08-29T00:22:15.392Z,2.20
2022-08-29T00:25:17.209Z,2.75
2022-08-29T00:28:18.768Z,2.17
2022-08-29T00:31:20.438Z,2.40
2022-08-29T00:34:22.137Z,3.10
2022-08-29T00:37:23.738Z,2.25
2022-08-29T00:40:33.079Z,2.20
2022-08-29T00:43:37.355Z,2.65
2022-08-29T00:46:50.730Z,2.63
2022-08-29T00:49:55.693Z,2.20
2022-08-29T00:52:59.204Z,2.28
2022-08-29T00:56:02.511Z,2.47
2022-08-29T00:59:11.883Z,2.70
2022-08-29T01:02:13.725Z,2.50
2022-08-29T01:05:17.982Z,2.45
2022-08-29T01:08:19.785Z,2.60
2022-08-29T01:11:40.618Z,2.58
2022-08-29T01:15:08.947Z,2.35
2022-08-29T01:18:11.875Z,2.45
2022-08-29T01:21:29.399Z,2.53
2022-08-29T01:24:37.583Z,2.50
2022-08-29T01:27:43.241Z,2.53
2022-08-29T01:31:06.610Z,2.47
2022-08-29T01:34:08.840Z,2.60
2022-08-29T01:37:13.219Z,2.95
2022-08-29T01:40:15.176Z,2.75
2022-08-29T01:43:16.806Z,2.70
2022-08-29T01:46:25.752Z,2.30
2022-08-29T01:49:28.009Z,2.70
2022-08-29T01:52:31.885Z,2.70
2022-08-29T01:55:33.564Z,2.67
2022-08-29T01:58:35.183Z,2.20
2022-08-29T02:01:39.673Z,2.65
2022-08-29T02:04:41.417Z,2.70
2022-08-29T02:07:43.002Z,2.65
2022-08-29T02:10:45.420Z,2.60
2022-08-29T02:13:50.424Z,2.70
2022-08-29T02:16:52.056Z,3.28
2022-08-29T02:19:53.764Z,2.88
2022-08-29T02:22:55.345Z,3.10
2022-08-29T02:25:57.231Z,2.80
2022-08-29T02:28:58.859Z,3.05
2022-08-29T02:32:01.003Z,2.85
2022-08-29T02:35:02.736Z,2.58
2022-08-29T02:38:06.722Z,2.85
2022-08-29T02:41:12.407Z,2.50
2022-08-29T02:44:15.686Z,2.40
2022-08-29T02:47:17.287Z,2.88
2022-08-29T02:50:19.932Z,3.15
2022-08-29T02:53:24.887Z,3.08
2022-08-29T02:56:27.620Z,3.50
2022-08-29T02:59:29.635Z,4.10
2022-08-29T03:02:31.294Z,2.90
2022-08-29T03:05:34.990Z,3.58
2022-08-29T03:08:37.791Z,3.30
2022-08-29T03:11:39.400Z,3.78
2022-08-29T03:14:41.791Z,3.50
2022-08-29T03:17:43.884Z,3.60
2022-08-29T03:20:45.716Z,3.50
2022-08-29T03:23:50.620Z,3.67
2022-08-29T03:26:54.523Z,3.50
2022-08-29T03:29:58.749Z,3.33
2022-08-29T03:33:01.067Z,4.30
2022-08-29T03:36:03.252Z,4.03
2022-08-29T03:39:09.609Z,4.35
2022-08-29T03:42:11.738Z,4.13
2022-08-29T03:45:15.887Z,4.05
2022-08-29T03:48:17.593Z,4.18
2022-08-29T03:51:20.251Z,4.43
2022-08-29T03:54:22.156Z,3.85
2022-08-29T03:57:23.816Z,4.65
2022-08-29T04:00:25.745Z,4.63
2022-08-29T04:03:30.908Z,4.95
2022-08-29T04:06:36.004Z,5.00
2022-08-29T04:09:37.659Z,4.70
2022-08-29T04:12:39.407Z,5.05
2022-08-29T04:15:42.216Z,5.13
2022-08-29T04:18:44.118Z,5.07
2022-08-29T04:21:47.852Z,6.22
2022-08-29T04:24:49.444Z,5.50
2022-08-29T04:27:51.500Z,4.90
2022-08-29T04:30:54.298Z,5.53
2022-08-29T04:33:56.539Z,5.28
2022-08-29T04:36:59.476Z,5.38
2022-08-29T04:40:01.633Z,5.50
2022-08-29T04:43:03.261Z,5.05
2022-08-29T04:46:05.011Z,5.25
2022-08-29T04:49:10.220Z,4.40
2022-08-29T04:52:13.818Z,4.60
2022-08-29T04:55:21.318Z,4.00
2022-08-29T04:58:25.102Z,4.10
2022-08-29T05:01:28.100Z,4.13
2022-08-29T05:04:29.856Z,3.95
2022-08-29T05:07:32.519Z,3.97
2022-08-29T05:10:34.537Z,4.25
2022-08-29T05:13:36.797Z,4.55
2022-08-29T05:16:38.870Z,4.50
2022-08-29T05:19:45.291Z,4.65
2022-08-29T05:22:47.383Z,5.80
2022-08-29T05:25:56.860Z,5.43
2022-08-29T05:28:58.812Z,5.50
2022-08-29T05:32:00.395Z,4.82
2022-08-29T05:35:04.010Z,5.65
2022-08-29T05:38:09.211Z,5.45
2022-08-29T05:41:11.662Z,5.22
2022-08-29T05:44:13.253Z,5.82
2022-08-29T05:47:16.973Z,5.03
2022-08-29T05:50:18.708Z,5.45
2022-08-29T05:53:20.316Z,6.05
2022-08-29T05:56:26.599Z,5.07
2022-08-29T05:59:28.309Z,5.20
2022-08-29T06:02:30.077Z,4.43
2022-08-29T06:05:31.931Z,5.15
2022-08-29T06:08:33.516Z,5.03
2022-08-29T06:11:35.349Z,4.90
2022-08-29T06:14:37.231Z,5.10
2022-08-29T06:17:39.021Z,5.03
2022-08-29T06:20:40.898Z,5.38
2022-08-29T06:23:43.800Z,5.00
2022-08-29T06:26:45.726Z,4.38
2022-08-29T06:29:47.410Z,5.30
2022-08-29T06:32:49.024Z,4.38
2022-08-29T06:35:52.660Z,4.22
2022-08-29T06:38:59.175Z,5.00
2022-08-29T06:42:00.985Z,4.70
2022-08-29T06:45:02.674Z,4.70
2022-08-29T06:48:04.364Z,5.60
2022-08-29T06:51:06.162Z,4.97
2022-08-29T06:54:10.225Z,4.85
2022-08-29T06:57:11.821Z,4.82
2022-08-29T07:00:21.960Z,4.68
2022-08-29T07:03:24.496Z,5.07
2022-08-29T07:06:27.497Z,5.25
2022-08-29T07:09:30.964Z,4.72
2022-08-29T07:12:32.598Z,5.20
2022-08-29T07:15:35.269Z,5.30
2022-08-29T07:18:37.415Z,4.82
2022-08-29T07:21:39.564Z,4.65
2022-08-29T07:24:41.177Z,5.25
2022-08-29T07:27:42.765Z,4.68
2022-08-29T07:30:44.420Z,5.15
2022-08-29T07:33:46.503Z,4.70
2022-08-29T07:36:48.513Z,4.78
2022-08-29T07:39:50.144Z,5.20
2022-08-29T07:42:51.762Z,4.50
2022-08-29T07:45:54.818Z,4.80
2022-08-29T07:48:58.427Z,5.25
2022-08-29T07:52:00.144Z,4.32
2022-08-29T07:55:01.980Z,4.45
2022-08-29T07:58:07.299Z,4.50
2022-08-29T08:01:08.946Z,4.10
2022-08-29T08:04:14.280Z,4.40
2022-08-29T08:07:17.059Z,4.22
2022-08-29T08:10:20.234Z,3.83
2022-08-29T08:13:21.919Z,4.15
2022-08-29T08:16:26.897Z,3.83
2022-08-29T08:19:28.579Z,3.78
2022-08-29T08:22:30.192Z,3.88
2022-08-29T08:25:31.923Z,4.55
2022-08-29T08:28:34.172Z,3.85
2022-08-29T08:31:35.878Z,3.50
2022-08-29T08:34:37.518Z,4.57
2022-08-29T08:37:39.921Z,4.22
2022-08-29T08:41:11.983Z,3.63
2022-08-29T08:44:49.474Z,4.97
2022-08-29T08:47:58.320Z,4.03
2022-08-29T08:51:22.849Z,3.50
2022-08-29T08:54:31.181Z,3.65
2022-08-29T08:57:40.036Z,3.65
2022-08-29T09:00:47.995Z,4.10
2022-08-29T09:03:56.453Z,4.40
2022-08-29T09:07:04.450Z,4.15
2022-08-29T09:10:16.970Z,4.80
2022-08-29T09:13:46.627Z,4.32
2022-08-29T09:16:54.753Z,3.53
2022-08-29T09:19:57.421Z,3.17
2022-08-29T09:23:24.793Z,4.00
2022-08-29T09:26:29.661Z,4.30
2022-08-29T09:29:31.710Z,3.80
2022-08-29T09:32:33.916Z,3.80
2022-08-29T09:35:40.504Z,4.82
2022-08-29T09:38:42.162Z,4.50
2022-08-29T09:41:46.309Z,4.82
2022-08-29T09:44:57.040Z,4.85
2022-08-29T09:48:10.697Z,4.80
2022-08-29T09:51:29.601Z,4.43
2022-08-29T09:54:43.429Z,4.47
2022-08-29T09:57:52.013Z,3.97
2022-08-29T10:01:12.366Z,4.47
2022-08-29T10:04:33.985Z,5.00
2022-08-29T10:07:50.738Z,4.07
2022-08-29T10:11:02.697Z,4.43
2022-08-29T10:14:14.627Z,4.40
2022-08-29T10:17:56.502Z,4.60
2022-08-29T10:21:10.198Z,4.35
2022-08-29T10:24:29.931Z,4.47
2022-08-29T10:27:44.049Z,4.67
2022-08-29T10:31:00.698Z,4.38
2022-08-29T10:34:23.866Z,4.28
2022-08-29T10:37:34.934Z,4.18
2022-08-29T10:40:51.201Z,3.83
2022-08-29T10:44:10.197Z,4.13
2022-08-29T10:47:17.984Z,4.30
2022-08-29T10:50:44.690Z,3.90
2022-08-29T10:53:54.753Z,3.80
2022-08-29T10:56:57.296Z,3.83
2022-08-29T11:00:08.600Z,3.95
2022-08-29T11:03:25.685Z,4.03
2022-08-29T11:06:42.932Z,3.70
2022-08-29T11:09:54.386Z,3.83
2022-08-29T11:13:02.938Z,4.28
2022-08-29T11:16:25.377Z,4.60
2022-08-29T11:19:47.562Z,4.40
2022-08-29T11:23:28.507Z,3.58
2022-08-29T11:26:45.126Z,3.65
2022-08-29T11:30:02.642Z,4.28
2022-08-29T11:33:10.002Z,3.92
2022-08-29T11:36:29.628Z,4.55
2022-08-29T11:40:10.066Z,4.70
2022-08-29T11:46:16.370Z,3.78
2022-08-29T11:49:44.225Z,4.32
2022-08-29T11:53:08.694Z,3.80
2022-08-29T11:56:13.249Z,4.35
2022-08-29T11:59:48.433Z,4.10
2022-08-29T12:02:50.028Z,3.80
2022-08-29T12:05:57.815Z,3.47
2022-08-29T12:09:19.347Z,3.40
2022-08-29T12:12:41.304Z,3.95
2022-08-29T12:15:53.251Z,4.15
2022-08-29T12:18:57.337Z,3.90
2022-08-29T12:21:59.089Z,3.70
2022-08-29T12:25:29.380Z,3.75
2022-08-29T12:28:38.209Z,3.90
2022-08-29T12:32:27.394Z,3.88
2022-08-29T12:35:57.491Z,3.83
2022-08-29T12:39:26.656Z,4.20
2022-08-29T12:42:47.201Z,3.72
2022-08-29T12:45:50.375Z,3.97
2022-08-29T12:49:05.261Z,4.47
2022-08-29T12:52:35.887Z,4.15
2022-08-29T12:55:47.597Z,3.80
2022-08-29T12:58:51.897Z,4.20
2022-08-29T13:01:56.792Z,3.70
2022-08-29T13:04:59.450Z,3.75
2022-08-29T13:08:33.130Z,4.13
2022-08-29T13:11:35.888Z,4.22
2022-08-29T13:15:04.467Z,4.22
2022-08-29T13:18:06.636Z,4.07
2022-08-29T13:21:29.024Z,4.00
2022-08-29T13:24:30.714Z,3.92
2022-08-29T13:27:34.264Z,3.42
2022-08-29T13:30:35.880Z,3.53
2022-08-29T13:33:50.157Z,3.55
2022-08-29T13:37:02.159Z,3.60
2022-08-29T13:40:31.094Z,3.78
2022-08-29T13:43:41.369Z,3.92
2022-08-29T13:46:47.118Z,4.13
2022-08-29T13:49:50.129Z,4.03
2022-08-29T13:52:53.667Z,4.03
2022-08-29T13:55:55.223Z,4.05
2022-08-29T13:58:57.804Z,3.92
2022-08-29T14:02:08.941Z,3.92
2022-08-29T14:05:13.175Z,4.07
2022-08-29T14:08:15.047Z,4.38
2022-08-29T14:11:17.599Z,3.90
2022-08-29T14:14:19.445Z,3.83
2022-08-29T14:17:22.733Z,3.95
2022-08-29T14:20:24.595Z,4.00
2022-08-29T14:23:26.254Z,4.15
2022-08-29T14:26:28.024Z,3.78
2022-08-29T14:29:34.918Z,4.05
2022-08-29T14:32:37.241Z,3.67
2022-08-29T14:35:43.274Z,4.00
2022-08-29T14:38:45.040Z,3.97
2022-08-29T14:41:46.722Z,3.85
2022-08-29T14:44:48.380Z,3.83
2022-08-29T14:47:50.107Z,4.53
2022-08-29T14:50:51.719Z,4.00
2022-08-29T14:53:54.173Z,3.65
2022-08-29T14:56:56.487Z,4.07
2022-08-29T14:59:58.088Z,3.75
2022-08-29T15:03:00.214Z,3.60
2022-08-29T15:06:04.736Z,3.42
2022-08-29T15:09:06.528Z,3.80
2022-08-29T15:12:08.234Z,3.97
2022-08-29T15:15:10.736Z,3.20
2022-08-29T15:18:25.982Z,3.78
2022-08-29T15:21:35.948Z,4.30
2022-08-29T15:24:37.658Z,3.33
2022-08-29T15:27:39.253Z,3.60
2022-08-29T15:30:42.053Z,3.70
2022-08-29T15:33:43.820Z,3.22
2022-08-29T15:36:45.424Z,3.60
2022-08-29T15:39:47.261Z,2.95
2022-08-29T15:42:48.917Z,3.25
2022-08-29T15:45:50.586Z,5.45
2022-08-29T15:48:52.283Z,3.25
2022-08-29T15:51:54.414Z,3.25
2022-08-29T15:54:57.256Z,2.97
2022-08-29T15:57:59.193Z,2.67
2022-08-29T16:01:00.814Z,3.60
2022-08-29T16:04:02.604Z,3.72
2022-08-29T16:07:04.576Z,3.72
2022-08-29T16:10:11.275Z,3.00
2022-08-29T16:13:13.283Z,3.28
2022-08-29T16:16:15.105Z,3.10
2022-08-29T16:19:17.220Z,3.50
2022-08-29T16:22:20.391Z,3.38
2022-08-29T16:25:23.815Z,3.42
2022-08-29T16:28:25.773Z,3.10
2022-08-29T16:31:27.445Z,3.60
2022-08-29T16:34:29.626Z,3.47
2022-08-29T16:37:31.220Z,3.42
2022-08-29T16:40:32.976Z,3.47
2022-08-29T16:43:38.396Z,2.92
2022-08-29T16:46:41.287Z,3.30
2022-08-29T16:49:42.919Z,3.40
2022-08-29T16:52:44.504Z,3.10
2022-08-29T16:55:46.123Z,2.97
2022-08-29T16:59:01.849Z,3.33
2022-08-29T17:02:03.882Z,3.60
2022-08-29T17:05:06.311Z,3.60
2022-08-29T17:08:07.842Z,3.50
2022-08-29T17:11:09.672Z,3.47
2022-08-29T17:14:11.413Z,3.75
2022-08-29T17:17:13.229Z,2.97
2022-08-29T17:20:15.334Z,3.50
2022-08-29T17:23:17.138Z,3.15
2022-08-29T17:26:19.171Z,3.38
2022-08-29T17:29:20.828Z,3.13
2022-08-29T17:32:22.920Z,3.78
2022-08-29T17:35:24.537Z,3.08
2022-08-29T17:38:26.727Z,3.70
2022-08-29T17:41:28.360Z,3.30
2022-08-29T17:44:32.747Z,3.58
2022-08-29T17:47:34.442Z,3.40
2022-08-29T17:50:36.256Z,3.42
2022-08-29T17:53:39.547Z,3.90
2022-08-29T17:56:44.790Z,2.92
2022-08-29T17:59:46.428Z,4.38
2022-08-29T18:02:48.401Z,4.35
2022-08-29T18:05:50.458Z,3.50
2022-08-29T18:08:52.048Z,3.72
2022-08-29T18:11:54.429Z,3.95
2022-08-29T18:14:56.031Z,3.53
2022-08-29T18:17:57.600Z,3.65
2022-08-29T18:20:59.172Z,3.22
2022-08-29T18:24:01.297Z,3.47
2022-08-29T18:27:03.027Z,3.45
2022-08-29T18:30:06.841Z,3.75
2022-08-29T18:33:09.556Z,3.72
2022-08-29T18:36:11.204Z,3.05
2022-08-29T18:39:14.958Z,3.72
2022-08-29T18:42:36.829Z,3.70
2022-08-29T18:45:39.794Z,3.50
2022-08-29T18:48:44.688Z,3.67
2022-08-29T18:51:46.848Z,3.90
2022-08-29T18:54:48.530Z,3.83
2022-08-29T18:57:51.087Z,4.32
2022-08-29T19:00:54.283Z,4.07
2022-08-29T19:03:57.699Z,3.80
2022-08-29T19:06:59.611Z,3.92
2022-08-29T19:10:01.258Z,3.85
2022-08-29T19:13:03.229Z,4.47
2022-08-29T19:16:08.092Z,4.28
2022-08-29T19:19:12.353Z,4.63
2022-08-29T19:22:15.923Z,5.65
2022-08-29T19:25:18.006Z,4.13
2022-08-29T19:28:20.664Z,5.07
2022-08-29T19:31:22.905Z,4.72
2022-08-29T19:34:24.564Z,4.78
2022-08-29T19:37:26.523Z,5.03
2022-08-29T19:40:29.984Z,5.05
2022-08-29T19:43:34.447Z,4.20
2022-08-29T19:46:36.159Z,4.32
2022-08-29T19:49:40.106Z,4.63
2022-08-29T19:52:43.787Z,4.53
2022-08-29T19:55:45.489Z,4.90
2022-08-29T19:58:47.550Z,4.65
2022-08-29T20:01:51.277Z,4.53
2022-08-29T20:04:53.127Z,4.72
2022-08-29T20:07:54.736Z,5.18
2022-08-29T20:10:56.392Z,5.07
2022-08-29T20:13:58.423Z,4.47
2022-08-29T20:17:01.876Z,5.05
2022-08-29T20:20:10.799Z,5.20
2022-08-29T20:23:13.055Z,4.90
2022-08-29T20:26:15.100Z,5.32
2022-08-29T20:29:17.108Z,4.38
2022-08-29T20:32:18.741Z,4.43
2022-08-29T20:35:40.132Z,4.80
2022-08-29T20:38:41.707Z,5.03
2022-08-29T20:41:52.081Z,5.13
2022-08-29T20:44:57.851Z,4.70
2022-08-29T20:47:59.558Z,4.88
2022-08-29T20:51:04.490Z,4.60
2022-08-29T20:54:06.736Z,4.97
2022-08-29T20:57:09.267Z,4.70
2022-08-29T21:00:14.872Z,4.45
2022-08-29T21:03:35.112Z,5.05
2022-08-29T21:06:37.323Z,4.95
2022-08-29T21:09:43.080Z,5.05
2022-08-29T21:12:45.013Z,4.85
2022-08-29T21:15:46.946Z,5.22
2022-08-29T21:18:53.168Z,4.75
2022-08-29T21:21:55.691Z,4.20
2022-08-29T21:24:57.437Z,5.00
2022-08-29T21:27:59.032Z,4.03
2022-08-29T21:31:06.579Z,4.70
2022-08-29T21:34:10.501Z,4.00
2022-08-29T21:37:12.064Z,4.63
2022-08-29T21:40:14.251Z,4.18
2022-08-29T21:43:16.003Z,4.30
2022-08-29T21:46:20.304Z,4.07
2022-08-29T21:49:21.969Z,4.32
2022-08-29T21:52:23.665Z,4.15
2022-08-29T21:55:25.425Z,4.28
2022-08-29T21:58:27.012Z,4.65
2022-08-29T22:01:31.593Z,4.18
2022-08-29T22:04:35.499Z,4.40
2022-08-29T22:07:40.670Z,4.45
2022-08-29T22:10:44.675Z,4.40
2022-08-29T22:13:46.229Z,4.53
2022-08-29T22:16:47.843Z,4.43
2022-08-29T22:19:49.483Z,4.35
2022-08-29T22:22:52.306Z,4.65
2022-08-29T22:25:54.004Z,5.30
2022-08-29T22:28:56.284Z,4.43
2022-08-29T22:31:57.878Z,4.43
2022-08-29T22:34:59.730Z,4.53
2022-08-29T22:38:01.966Z,4.80
2022-08-29T22:41:03.603Z,4.68
2022-08-29T22:47:27.676Z,5.00
2022-08-29T22:50:29.281Z,5.13
2022-08-29T22:53:30.872Z,5.50
2022-08-29T22:56:33.401Z,5.25
2022-08-29T22:59:36.101Z,5.00
2022-08-29T23:02:38.411Z,4.97
2022-08-29T23:05:40.139Z,5.18
2022-08-29T23:08:41.724Z,5.47
2022-08-29T23:11:43.389Z,4.90
2022-08-29T23:14:46.383Z,5.05
2022-08-29T23:17:48.041Z,5.70
2022-08-29T23:20:51.947Z,4.85
2022-08-29T23:23:53.715Z,4.78
2022-08-29T23:26:56.507Z,5.50
2022-08-29T23:29:59.651Z,5.13
2022-08-29T23:33:01.442Z,6.03
2022-08-29T23:36:03.358Z,5.30
2022-08-29T23:39:06.780Z,5.32
2022-08-29T23:42:08.496Z,4.80
2022-08-29T23:45:10.757Z,5.55
2022-08-29T23:48:12.368Z,5.75
2022-08-29T23:51:14.514Z,4.85
2022-08-29T23:54:16.362Z,5.50
2022-08-29T23:57:17.954Z,5.40
